Angora, Minnesota
Current Conditions -  °F | °C
As of 10:54 PM on Thursday 30 Oct 2014 (Local Time) from KCQM Reporting Station
Overcast Overcast  
Wind Chill: -8°   Ceiling: 4100
Heat Index: -3°   Visibility: 10mi
Dew Point: -8°   Wind: 9mph
Humidity: 69%   Direction: 340°NNW
Pressure: 30.38"   Gusts: 17mph
Location:  47.77°N, 92.63°W
Report Text: KCQM 310354Z AUTO 34008G15KT 301V001 10SM OVC041 M03/M08 A3038 RMK AO2
Loading
Personal Weather Stations






























Interactive Weather Map
Tropical Storm Tracking
New forecast layout! Learn more

10-Day Weather Forecast

Advertisements
Track Severe Weather on mobile